createdAt,value
2017-03-13T00:00:44.878Z,87.77
2017-03-13T00:01:55.606Z,87.77
2017-03-13T00:03:05.945Z,87.49
2017-03-13T00:04:16.267Z,87.77
2017-03-13T00:05:27.005Z,87.87
2017-03-13T00:06:37.323Z,87.68
2017-03-13T00:07:48.067Z,87.68
2017-03-13T00:08:58.766Z,87.97
2017-03-13T00:10:09.070Z,87.77
2017-03-13T00:11:19.784Z,87.68
2017-03-13T00:12:30.086Z,87.77
2017-03-13T00:13:40.409Z,87.68
2017-03-13T00:14:51.117Z,87.77
2017-03-13T00:16:01.863Z,87.35
2017-03-13T00:17:12.173Z,88.16
2017-03-13T00:18:22.940Z,87.87
2017-03-13T00:19:33.255Z,87.77
2017-03-13T00:20:43.983Z,87.87
2017-03-13T00:21:54.697Z,87.92
2017-03-13T00:23:05.006Z,87.92
2017-03-13T00:24:15.738Z,87.97
2017-03-13T00:25:26.472Z,88.21
2017-03-13T00:26:37.176Z,88.4
2017-03-13T00:27:47.118Z,88.59
2017-03-13T00:28:57.846Z,88.3
2017-03-13T00:30:08.561Z,87.73
2017-03-13T00:31:19.279Z,87.73
2017-03-13T00:32:29.993Z,86.98
2017-03-13T00:33:40.735Z,87.3
2017-03-13T00:34:51.456Z,87.21
2017-03-13T00:36:02.173Z,86.83
2017-03-13T00:37:12.487Z,86.64
2017-03-13T00:38:23.207Z,86.45
2017-03-13T00:39:33.567Z,86.55
2017-03-13T00:40:44.288Z,86.64
2017-03-13T00:41:54.991Z,86.45
2017-03-13T00:43:05.704Z,86.74
2017-03-13T00:44:16.421Z,86.16
2017-03-13T00:45:27.138Z,86.26
2017-03-13T00:46:37.853Z,86.16
2017-03-13T00:47:48.156Z,85.88
2017-03-13T00:48:58.873Z,86.26
2017-03-13T00:50:09.187Z,86.07
2017-03-13T00:51:19.907Z,86.35
2017-03-13T00:52:30.633Z,86.07
2017-03-13T00:53:41.335Z,85.88
2017-03-13T00:54:52.055Z,86.16
2017-03-13T00:56:02.777Z,86.16
2017-03-13T00:57:13.522Z,86.64
2017-03-13T00:58:24.256Z,86.16
2017-03-13T00:59:34.597Z,86.64
2017-03-13T01:00:45.342Z,86.45
2017-03-13T01:01:55.681Z,86.55
2017-03-13T01:03:06.393Z,86.45
2017-03-13T01:04:17.130Z,86.64
2017-03-13T01:05:27.851Z,86.26
2017-03-13T01:06:38.595Z,86.45
2017-03-13T01:07:49.311Z,86.55
2017-03-13T01:09:00.040Z,86.07
2017-03-13T01:10:10.368Z,86.16
2017-03-13T01:11:20.711Z,86.64
2017-03-13T01:12:31.427Z,86.35
2017-03-13T01:13:42.164Z,85.88
2017-03-13T01:14:52.876Z,86.26
2017-03-13T01:16:03.595Z,86.07
2017-03-13T01:17:14.301Z,86.26
2017-03-13T01:18:25.035Z,86.45
2017-03-13T01:19:35.776Z,86.83
2017-03-13T01:20:46.488Z,86.35
2017-03-13T01:21:57.207Z,85.97
2017-03-13T01:23:07.936Z,86.07
2017-03-13T01:24:18.650Z,85.5
2017-03-13T01:25:28.976Z,86.03
2017-03-13T01:26:39.700Z,85.74
2017-03-13T01:27:50.438Z,86.07
2017-03-13T01:29:01.150Z,85.93
2017-03-13T01:30:11.471Z,86.41
2017-03-13T01:31:22.177Z,86.12
2017-03-13T01:32:32.489Z,86.12
2017-03-13T01:33:43.207Z,86.41
2017-03-13T01:34:53.128Z,86.31
2017-03-13T01:36:03.831Z,86.22
2017-03-13T01:37:14.559Z,86.12
2017-03-13T01:38:25.297Z,86.22
2017-03-13T01:39:36.001Z,86.41
2017-03-13T01:40:46.714Z,86.69
2017-03-13T01:41:57.427Z,86.5
2017-03-13T01:43:08.127Z,86.6
2017-03-13T01:44:18.427Z,86.6
2017-03-13T01:45:29.136Z,86.79
2017-03-13T01:46:39.847Z,87.07
2017-03-13T01:47:50.566Z,86.88
2017-03-13T01:49:01.290Z,86.98
2017-03-13T01:50:11.234Z,86.69
2017-03-13T01:51:21.148Z,87.45
2017-03-13T01:52:31.886Z,87.35
2017-03-13T01:53:42.615Z,87.35
2017-03-13T01:54:53.339Z,87.73
2017-03-13T01:56:03.690Z,87.45
2017-03-13T01:57:14.446Z,86.98
2017-03-13T01:58:25.158Z,87.07
2017-03-13T01:59:35.464Z,86.88
2017-03-13T02:00:46.178Z,87.35
2017-03-13T02:01:56.921Z,87.26
2017-03-13T02:03:07.647Z,86.98
2017-03-13T02:04:17.969Z,86.69
2017-03-13T02:05:28.743Z,86.41
2017-03-13T02:06:39.463Z,86.79
2017-03-13T02:07:50.188Z,86.79
2017-03-13T02:09:00.907Z,86.5
2017-03-13T02:10:11.635Z,86.6
2017-03-13T02:11:22.365Z,86.88
2017-03-13T02:12:33.071Z,87.07
2017-03-13T02:13:43.787Z,87.45
2017-03-13T02:14:54.123Z,86.98
2017-03-13T02:16:04.853Z,86.88
2017-03-13T02:17:15.579Z,86.5
2017-03-13T02:18:26.302Z,86.79
2017-03-13T02:19:36.613Z,86.6
2017-03-13T02:20:47.327Z,86.5
2017-03-13T02:21:58.076Z,86.41
2017-03-13T02:23:08.783Z,86.41
2017-03-13T02:24:19.509Z,86.5
2017-03-13T02:25:30.230Z,86.41
2017-03-13T02:26:40.963Z,86.6
2017-03-13T02:27:50.888Z,86.79
2017-03-13T02:29:01.601Z,86.22
2017-03-13T02:30:11.919Z,86.6
2017-03-13T02:31:22.626Z,86.5
2017-03-13T02:32:33.322Z,86.41
2017-03-13T02:33:44.088Z,86.41
2017-03-13T02:34:54.412Z,86.5
2017-03-13T02:36:05.113Z,86.69
2017-03-13T02:37:15.834Z,86.69
2017-03-13T02:38:26.559Z,86.79
2017-03-13T02:39:37.267Z,86.88
2017-03-13T02:40:47.978Z,87.16
2017-03-13T02:41:58.714Z,87.16
2017-03-13T02:43:09.434Z,87.07
2017-03-13T02:44:20.147Z,86.79
2017-03-13T02:45:30.866Z,86.79
2017-03-13T02:46:41.589Z,86.88
2017-03-13T02:47:52.300Z,87.26
2017-03-13T02:49:03.046Z,86.98
2017-03-13T02:50:13.758Z,86.88
2017-03-13T02:51:24.094Z,87.35
2017-03-13T02:52:34.417Z,86.83
2017-03-13T02:53:45.139Z,86.65
2017-03-13T02:54:55.847Z,86.74
2017-03-13T02:56:06.567Z,86.74
2017-03-13T02:57:17.308Z,86.79
2017-03-13T02:58:28.025Z,86.69
2017-03-13T02:59:38.756Z,86.22
2017-03-13T03:00:48.696Z,86.5
2017-03-13T03:01:59.417Z,86.22
2017-03-13T03:03:10.134Z,85.84
2017-03-13T03:04:20.917Z,85.84
2017-03-13T03:05:31.633Z,85.84
2017-03-13T03:06:42.356Z,85.84
2017-03-13T03:07:53.067Z,86.03
2017-03-13T03:09:03.393Z,86.12
2017-03-13T03:10:14.108Z,85.93
2017-03-13T03:11:24.869Z,86.03
2017-03-13T03:12:35.606Z,86.12
2017-03-13T03:13:46.328Z,86.03
2017-03-13T03:14:57.046Z,85.55
2017-03-13T03:16:09.774Z,85.46
2017-03-13T03:17:20.495Z,85.36
2017-03-13T03:18:31.229Z,85.27
2017-03-13T03:19:41.951Z,85.27
2017-03-13T03:20:52.657Z,84.99
2017-03-13T03:22:03.366Z,85.36
2017-03-13T03:23:13.691Z,84.51
2017-03-13T03:24:24.413Z,84.13
2017-03-13T03:25:35.125Z,84.04
2017-03-13T03:26:45.443Z,84.23
2017-03-13T03:27:56.161Z,84.42
2017-03-13T03:29:06.870Z,84.04
2017-03-13T03:30:17.606Z,84.13
2017-03-13T03:31:28.338Z,83.94
2017-03-13T03:32:39.056Z,84.13
2017-03-13T03:33:49.765Z,84.23
2017-03-13T03:35:00.473Z,83.09
2017-03-13T03:36:10.385Z,82.43
2017-03-13T03:37:21.091Z,82.62
2017-03-13T03:38:31.791Z,82.9
2017-03-13T03:39:42.544Z,81.95
2017-03-13T03:40:53.245Z,81.48
2017-03-13T03:42:03.945Z,82.14
2017-03-13T03:43:13.855Z,82.71
2017-03-13T03:44:24.580Z,82.71
2017-03-13T03:45:35.301Z,82.52
2017-03-13T03:46:46.100Z,82.14
2017-03-13T03:47:56.409Z,82.24
2017-03-13T03:49:07.141Z,83.18
2017-03-13T03:50:17.861Z,82.81
2017-03-13T03:51:28.574Z,82.52
2017-03-13T03:52:39.296Z,82.43
2017-03-13T03:53:49.607Z,82.24
2017-03-13T03:54:59.954Z,81.76
2017-03-13T03:56:10.666Z,81.38
2017-03-13T03:57:21.391Z,81.29
2017-03-13T03:58:32.105Z,80.91
2017-03-13T03:59:42.832Z,80.44
2017-03-13T04:00:53.540Z,80.06
2017-03-13T04:02:04.278Z,80.15
2017-03-13T04:03:14.205Z,79.58
2017-03-13T04:04:24.936Z,79.77
2017-03-13T04:05:35.655Z,79.39
2017-03-13T04:06:46.366Z,79.02
2017-03-13T04:07:57.070Z,78.07
2017-03-13T04:09:07.778Z,78.35
2017-03-13T04:10:18.506Z,78.07
2017-03-13T04:11:29.210Z,78.16
2017-03-13T04:12:39.921Z,78.26
2017-03-13T04:13:50.648Z,78.92
2017-03-13T04:15:01.378Z,79.02
2017-03-13T04:16:12.095Z,79.11
2017-03-13T04:17:22.427Z,79.11
2017-03-13T04:18:32.740Z,79.11
2017-03-13T04:19:43.460Z,78.83
2017-03-13T04:20:54.167Z,79.21
2017-03-13T04:22:04.870Z,78.83
2017-03-13T04:23:15.191Z,79.11
2017-03-13T04:24:25.905Z,79.58
2017-03-13T04:25:36.658Z,79.87
2017-03-13T04:26:46.974Z,79.68
2017-03-13T04:27:57.703Z,79.49
2017-03-13T04:29:08.414Z,78.83
2017-03-13T04:30:19.127Z,77.97
2017-03-13T04:31:29.833Z,78.83
2017-03-13T04:32:40.534Z,78.26
2017-03-13T04:33:51.261Z,79.02
2017-03-13T04:35:01.963Z,79.02
2017-03-13T04:36:12.689Z,79.02
2017-03-13T04:37:23.425Z,79.49
2017-03-13T04:38:34.139Z,79.11
2017-03-13T04:39:44.854Z,78.07
2017-03-13T04:40:55.160Z,79.21
2017-03-13T04:42:05.867Z,79.68
2017-03-13T04:43:16.583Z,79.11
2017-03-13T04:44:27.297Z,79.02
2017-03-13T04:45:38.018Z,78.16
2017-03-13T04:46:48.730Z,77.78
2017-03-13T04:47:59.462Z,77.59
2017-03-13T04:49:09.800Z,76.93
2017-03-13T04:50:20.552Z,76.36
2017-03-13T04:51:31.259Z,76.51
2017-03-13T04:52:41.988Z,75.95
2017-03-13T04:53:52.719Z,75.38
2017-03-13T04:55:03.430Z,75.47
2017-03-13T04:56:14.175Z,75.66
2017-03-13T04:57:24.893Z,76.14
2017-03-13T04:58:35.620Z,75.57
2017-03-13T04:59:46.377Z,75
2017-03-13T05:00:57.087Z,76.14
2017-03-13T05:02:07.416Z,75.76
2017-03-13T05:03:17.365Z,75.38
2017-03-13T05:04:27.665Z,75.76
2017-03-13T05:05:38.386Z,75.95
2017-03-13T05:06:48.322Z,75.85
2017-03-13T05:07:59.069Z,75.76
2017-03-13T05:09:09.790Z,75.76
2017-03-13T05:10:20.518Z,75.57
2017-03-13T05:11:31.224Z,75.95
2017-03-13T05:12:41.952Z,76.04
2017-03-13T05:13:52.673Z,75.28
2017-03-13T05:15:02.603Z,75.57
2017-03-13T05:16:13.332Z,75.09
2017-03-13T05:17:24.051Z,74.62
2017-03-13T05:18:34.765Z,74.81
2017-03-13T05:19:45.493Z,74.81
2017-03-13T05:20:56.195Z,75.19
2017-03-13T05:22:06.907Z,75.19
2017-03-13T05:23:17.617Z,76.32
2017-03-13T05:24:28.339Z,76.42
2017-03-13T05:25:39.057Z,75.95
2017-03-13T05:26:49.391Z,75.95
2017-03-13T05:28:00.110Z,76.14
2017-03-13T05:29:10.428Z,76.32
2017-03-13T05:30:21.147Z,75.38
2017-03-13T05:31:31.456Z,76.23
2017-03-13T05:32:41.769Z,76.04
2017-03-13T05:33:52.080Z,75.76
2017-03-13T05:35:02.797Z,75
2017-03-13T05:36:13.106Z,75.76
2017-03-13T05:37:23.456Z,76.32
2017-03-13T05:38:34.168Z,75.95
2017-03-13T05:39:44.484Z,75.57
2017-03-13T05:40:54.412Z,75.85
2017-03-13T05:42:05.129Z,76.61
2017-03-13T05:43:15.849Z,76.51
2017-03-13T05:44:26.560Z,76.89
2017-03-13T05:45:37.258Z,76.32
2017-03-13T05:46:47.579Z,76.8
2017-03-13T05:47:58.312Z,76.7
2017-03-13T05:49:09.019Z,77.08
2017-03-13T05:50:19.746Z,77.18
2017-03-13T05:51:30.458Z,77.27
2017-03-13T05:52:41.158Z,77.84
2017-03-13T05:53:51.878Z,77.46
2017-03-13T05:55:02.937Z,77.84
2017-03-13T05:56:13.286Z,77.75
2017-03-13T05:57:23.996Z,78.22
2017-03-13T05:58:34.721Z,78.41
2017-03-13T05:59:45.494Z,78.03
2017-03-13T06:00:56.216Z,77.56
2017-03-13T06:02:06.923Z,78.5
2017-03-13T06:03:17.233Z,78.22
2017-03-13T06:04:27.968Z,78.22
2017-03-13T06:05:38.307Z,77.75
2017-03-13T06:06:49.020Z,78.31
2017-03-13T06:07:59.731Z,78.22
2017-03-13T06:09:10.431Z,78.98
2017-03-13T06:10:21.122Z,78.88
2017-03-13T06:11:31.437Z,78.59
2017-03-13T06:12:42.432Z,78.31
2017-03-13T06:13:53.155Z,78.88
2017-03-13T06:15:03.887Z,78.79
2017-03-13T06:16:14.614Z,78.59
2017-03-13T06:17:25.336Z,78.69
2017-03-13T06:18:36.049Z,78.59
2017-03-13T06:19:46.773Z,78.41
2017-03-13T06:20:57.107Z,78.03
2017-03-13T06:22:07.810Z,78.31
2017-03-13T06:23:18.124Z,78.22
2017-03-13T06:24:28.449Z,78.22
2017-03-13T06:25:39.170Z,78.22
2017-03-13T06:26:49.889Z,78.31
2017-03-13T06:28:00.247Z,78.59
2017-03-13T06:29:10.969Z,78.03
2017-03-13T06:30:21.672Z,78.59
2017-03-13T06:31:32.393Z,78.22
2017-03-13T06:32:43.117Z,78.69
2017-03-13T06:33:53.831Z,78.13
2017-03-13T06:35:04.554Z,79.36
2017-03-13T06:36:15.275Z,78.03
2017-03-13T06:37:25.985Z,78.59
2017-03-13T06:38:36.702Z,78.31
2017-03-13T06:39:47.414Z,78.03
2017-03-13T06:40:58.148Z,78.5
2017-03-13T06:42:08.479Z,78.13
2017-03-13T06:43:18.399Z,78.31
2017-03-13T06:44:29.122Z,78.03
2017-03-13T06:45:39.843Z,78.41
2017-03-13T06:46:50.569Z,78.03
2017-03-13T06:48:01.276Z,77.75
2017-03-13T06:49:11.994Z,78.5
2017-03-13T06:50:22.729Z,78.98
2017-03-13T06:51:33.450Z,78.59
2017-03-13T06:52:44.166Z,78.13
2017-03-13T06:53:54.493Z,77.94
2017-03-13T06:55:05.210Z,78.31
2017-03-13T06:56:15.540Z,78.5
2017-03-13T06:57:25.862Z,78.22
2017-03-13T06:58:36.175Z,78.31
2017-03-13T06:59:46.908Z,78.79
2017-03-13T07:00:57.628Z,78.22
2017-03-13T07:02:07.944Z,79.07
2017-03-13T07:03:18.261Z,78.98
2017-03-13T07:04:28.978Z,78.22
2017-03-13T07:05:39.834Z,78.69
2017-03-13T07:06:50.142Z,78.22
2017-03-13T07:08:00.461Z,78.03
2017-03-13T07:09:11.189Z,78.03
2017-03-13T07:10:21.919Z,78.35
2017-03-13T07:11:32.245Z,79.26
2017-03-13T07:12:42.582Z,79.17
2017-03-13T07:13:53.306Z,78.59
2017-03-13T07:15:04.032Z,78.79
2017-03-13T07:16:14.368Z,79.07
2017-03-13T07:17:24.698Z,78.79
2017-03-13T07:18:35.421Z,79.21
2017-03-13T07:19:46.132Z,79.74
2017-03-13T07:20:56.848Z,79.64
2017-03-13T07:22:07.571Z,79.55
2017-03-13T07:23:17.876Z,79.36
2017-03-13T07:24:27.429Z,79.07
2017-03-13T07:25:37.740Z,78.98
2017-03-13T07:26:48.460Z,78.79
2017-03-13T07:27:59.168Z,79.07
2017-03-13T07:29:12.692Z,78.88
2017-03-13T07:30:23.412Z,79.26
2017-03-13T07:31:33.640Z,78.35
2017-03-13T07:32:44.348Z,77.97
2017-03-13T07:33:55.067Z,77.97
2017-03-13T07:35:05.783Z,78.83
2017-03-13T07:36:16.507Z,78.35
2017-03-13T07:37:27.221Z,78.16
2017-03-13T07:38:37.957Z,78.26
2017-03-13T07:39:48.670Z,77.78
2017-03-13T07:40:59.406Z,78.35
2017-03-13T07:42:10.139Z,77.69
2017-03-13T07:43:20.455Z,78.16
2017-03-13T07:44:31.166Z,78.16
2017-03-13T07:45:41.883Z,78.16
2017-03-13T07:46:52.581Z,78.64
2017-03-13T07:48:02.913Z,78.26
2017-03-13T07:49:13.228Z,78.26
2017-03-13T07:50:23.542Z,78.92
2017-03-13T07:51:34.286Z,79.02
2017-03-13T07:52:45.001Z,78.73
2017-03-13T07:53:55.702Z,78.26
2017-03-13T07:55:06.426Z,78.07
2017-03-13T07:56:16.746Z,78.54
2017-03-13T07:57:27.074Z,78.07
2017-03-13T07:58:37.789Z,78.45
2017-03-13T07:59:48.493Z,78.07
2017-03-13T08:00:59.196Z,78.26
2017-03-13T08:02:09.931Z,78.26
2017-03-13T08:03:20.270Z,78.26
2017-03-13T08:04:30.609Z,77.97
2017-03-13T08:05:41.338Z,78.26
2017-03-13T08:06:52.091Z,78.35
2017-03-13T08:08:02.829Z,78.07
2017-03-13T08:09:13.128Z,77.4
2017-03-13T08:10:23.841Z,77.12
2017-03-13T08:11:34.541Z,77.88
2017-03-13T08:12:45.267Z,77.59
2017-03-13T08:13:55.601Z,77.78
2017-03-13T08:15:06.297Z,77.31
2017-03-13T08:16:17.044Z,77.31
2017-03-13T08:17:27.358Z,77.97
2017-03-13T08:18:38.094Z,77.78
2017-03-13T08:19:48.434Z,77.78
2017-03-13T08:20:59.136Z,78.35
2017-03-13T08:22:09.863Z,78.35
2017-03-13T08:23:20.580Z,77.5
2017-03-13T08:24:31.304Z,77.59
2017-03-13T08:25:40.850Z,77.88
2017-03-13T08:26:51.151Z,77.78
2017-03-13T08:28:01.884Z,77.59
2017-03-13T08:29:12.603Z,77.59
2017-03-13T08:30:23.352Z,77.5
2017-03-13T08:31:34.075Z,77.69
2017-03-13T08:32:44.811Z,77.97
2017-03-13T08:33:54.758Z,78.45
2017-03-13T08:35:05.484Z,78.54
2017-03-13T08:36:16.206Z,78.35
2017-03-13T08:37:26.935Z,79.3
2017-03-13T08:38:37.685Z,79.96
2017-03-13T08:39:48.410Z,79.68
2017-03-13T08:40:59.139Z,80.15
2017-03-13T08:42:09.870Z,80.25
2017-03-13T08:43:20.582Z,81.01
2017-03-13T08:44:31.331Z,81.2
2017-03-13T08:45:42.038Z,81.48
2017-03-13T08:46:52.750Z,81.76
2017-03-13T08:48:03.474Z,82.43
2017-03-13T08:49:14.177Z,82.81
2017-03-13T08:50:24.485Z,83.37
2017-03-13T08:51:35.214Z,83.28
2017-03-13T08:52:45.945Z,84.13
2017-03-13T08:53:56.681Z,84.99
2017-03-13T08:55:07.383Z,85.46
2017-03-13T08:56:18.109Z,85.74
2017-03-13T08:57:28.834Z,86.69
2017-03-13T08:58:39.542Z,87.12
2017-03-13T08:59:50.269Z,87.69
2017-03-13T09:01:00.992Z,87.4
2017-03-13T09:02:10.925Z,87.88
2017-03-13T09:03:21.247Z,88.35
2017-03-13T09:04:31.569Z,88.45
2017-03-13T09:05:42.321Z,89.3
2017-03-13T09:06:53.041Z,89.11
2017-03-13T09:08:03.753Z,89.49
2017-03-13T09:09:14.482Z,89.58
2017-03-13T09:10:25.195Z,89.01
2017-03-13T09:11:35.524Z,89.01
2017-03-13T09:12:46.243Z,89.96
2017-03-13T09:13:56.977Z,90.25
2017-03-13T09:15:07.679Z,90.81
2017-03-13T09:16:18.392Z,91.67
2017-03-13T09:17:28.326Z,91.48
2017-03-13T09:18:39.080Z,92.14
2017-03-13T09:19:49.791Z,92.24
2017-03-13T09:21:00.118Z,92.43
2017-03-13T09:22:10.847Z,92.52
2017-03-13T09:23:21.161Z,92.61
2017-03-13T09:24:31.863Z,92.43
2017-03-13T09:25:42.210Z,91.76
2017-03-13T09:26:52.941Z,92.24
2017-03-13T09:28:03.645Z,91.38
2017-03-13T09:29:13.977Z,91.48
2017-03-13T09:30:24.687Z,91.48
2017-03-13T09:31:35.014Z,91
2017-03-13T09:32:45.325Z,91
2017-03-13T09:33:56.047Z,91
2017-03-13T09:35:06.792Z,90.63
2017-03-13T09:36:17.514Z,90.25
2017-03-13T09:37:28.211Z,90.06
2017-03-13T09:38:38.520Z,89.58
2017-03-13T09:39:49.241Z,89.58
2017-03-13T09:40:59.960Z,89.2
2017-03-13T09:42:10.673Z,89.3
2017-03-13T09:43:21.418Z,88.92
2017-03-13T09:44:32.146Z,88.92
2017-03-13T09:45:42.866Z,88.64
2017-03-13T09:46:53.194Z,88.54
2017-03-13T09:48:03.914Z,88.64
2017-03-13T09:49:14.254Z,88.45
2017-03-13T09:50:24.969Z,88.07
2017-03-13T09:51:35.691Z,88.07
2017-03-13T09:52:46.404Z,87.69
2017-03-13T09:53:57.116Z,87.78
2017-03-13T09:55:07.835Z,87.73
2017-03-13T09:56:18.166Z,87.73
2017-03-13T09:57:28.891Z,87.16
2017-03-13T09:58:39.600Z,87.73
2017-03-13T09:59:50.344Z,87.83
2017-03-13T10:01:01.056Z,87.64
2017-03-13T10:02:11.761Z,86.79
2017-03-13T10:03:22.481Z,87.16
2017-03-13T10:04:32.792Z,86.46
2017-03-13T10:05:43.501Z,86.6
2017-03-13T10:06:53.410Z,86.36
2017-03-13T10:08:04.186Z,86.41
2017-03-13T10:09:14.493Z,86.46
2017-03-13T10:10:25.255Z,86.41
2017-03-13T10:11:35.971Z,86.31
2017-03-13T10:12:46.690Z,86.08
2017-03-13T10:13:57.407Z,86.18
2017-03-13T10:15:07.719Z,86.74
2017-03-13T10:16:18.439Z,86.31
2017-03-13T10:17:29.156Z,86.08
2017-03-13T10:18:39.090Z,86.41
2017-03-13T10:19:49.800Z,86.5
2017-03-13T10:21:00.532Z,85.93
2017-03-13T10:22:10.863Z,86.22
2017-03-13T10:23:21.588Z,86.5
2017-03-13T10:24:32.311Z,86.12
2017-03-13T10:25:42.642Z,86.03
2017-03-13T10:26:52.967Z,85.93
2017-03-13T10:28:03.271Z,86.12
2017-03-13T10:29:13.200Z,86.12
2017-03-13T10:30:23.536Z,86.22
2017-03-13T10:31:33.443Z,86.03
2017-03-13T10:32:44.151Z,85.93
2017-03-13T10:33:54.926Z,86.12
2017-03-13T10:35:05.252Z,86.12
2017-03-13T10:36:15.994Z,86.12
2017-03-13T10:37:26.353Z,85.84
2017-03-13T10:38:36.666Z,85.93
2017-03-13T10:39:46.593Z,85.84
2017-03-13T10:40:57.309Z,86.03
2017-03-13T10:42:07.626Z,85.84
2017-03-13T10:43:17.942Z,85.74
2017-03-13T10:44:28.253Z,85.36
2017-03-13T10:45:38.595Z,85.65
2017-03-13T10:46:49.309Z,85.65
2017-03-13T10:48:00.039Z,85.65
2017-03-13T10:49:10.751Z,85.46
2017-03-13T10:50:21.464Z,85.55
2017-03-13T10:51:32.195Z,85.93
2017-03-13T10:52:42.914Z,86.12
2017-03-13T10:53:53.253Z,85.84
2017-03-13T10:55:03.960Z,85.84
2017-03-13T10:56:14.677Z,86.22
2017-03-13T10:57:25.404Z,86.12
2017-03-13T10:58:36.120Z,86.41
2017-03-13T10:59:46.467Z,86.22
2017-03-13T11:00:56.799Z,86.22
2017-03-13T11:02:07.520Z,86.22
2017-03-13T11:03:17.858Z,85.74
2017-03-13T11:04:28.581Z,85.74
2017-03-13T11:05:39.325Z,85.93
2017-03-13T11:06:50.046Z,85.74
2017-03-13T11:08:00.757Z,86.03
2017-03-13T11:09:11.486Z,85.93
2017-03-13T11:10:22.200Z,86.03
2017-03-13T11:11:32.917Z,85.74
2017-03-13T11:12:43.227Z,86.22
2017-03-13T11:13:53.926Z,86.31
2017-03-13T11:15:04.644Z,86.22
2017-03-13T11:16:14.566Z,86.41
2017-03-13T11:17:25.313Z,85.84
2017-03-13T11:18:36.038Z,86.12
2017-03-13T11:19:46.772Z,86.6
2017-03-13T11:20:57.504Z,86.6
2017-03-13T11:22:07.836Z,86.69
2017-03-13T11:23:18.548Z,86.5
2017-03-13T11:24:28.889Z,86.6
2017-03-13T11:25:39.592Z,86.6
2017-03-13T11:26:50.311Z,86.22
2017-03-13T11:28:00.228Z,86.22
2017-03-13T11:29:10.525Z,86.5
2017-03-13T11:30:21.260Z,86.22
2017-03-13T11:31:31.593Z,86.5
2017-03-13T11:32:42.304Z,86.98
2017-03-13T11:33:53.029Z,86.88
2017-03-13T11:35:03.771Z,86.41
2017-03-13T11:36:14.489Z,87.07
2017-03-13T11:37:25.268Z,86.69
2017-03-13T11:38:35.992Z,86.6
2017-03-13T11:39:46.709Z,86.31
2017-03-13T11:40:57.425Z,86.12
2017-03-13T11:42:08.138Z,86.5
2017-03-13T11:43:18.494Z,86.6
2017-03-13T11:44:28.869Z,86.79
2017-03-13T11:45:39.644Z,86.31
2017-03-13T11:46:50.378Z,86.31
2017-03-13T11:48:00.308Z,86.69
2017-03-13T11:49:10.632Z,85.84
2017-03-13T11:50:21.348Z,86.12
2017-03-13T11:51:32.081Z,86.03
2017-03-13T11:52:42.406Z,85.93
2017-03-13T11:53:53.110Z,85.74
2017-03-13T11:55:03.423Z,85.74
2017-03-13T11:56:13.764Z,85.84
2017-03-13T11:57:24.503Z,85.17
2017-03-13T11:58:34.815Z,85.17
2017-03-13T11:59:45.562Z,84.8
2017-03-13T12:00:55.867Z,84.8
2017-03-13T12:02:06.218Z,85.55
2017-03-13T12:03:16.541Z,85.55
2017-03-13T12:04:27.257Z,85.27
2017-03-13T12:05:37.578Z,85.46
2017-03-13T12:06:48.287Z,84.99
2017-03-13T12:07:59.033Z,84.8
2017-03-13T12:09:09.769Z,85.08
2017-03-13T12:10:20.097Z,85.36
2017-03-13T12:11:30.823Z,84.99
2017-03-13T12:12:41.590Z,84.99
2017-03-13T12:13:52.303Z,85.17
2017-03-13T12:15:03.028Z,84.61
2017-03-13T12:16:13.367Z,84.04
2017-03-13T12:17:23.706Z,84.04
2017-03-13T12:18:34.013Z,84.89
2017-03-13T12:19:44.729Z,84.36
2017-03-13T12:20:55.041Z,84.42
2017-03-13T12:22:05.769Z,84.46
2017-03-13T12:23:16.478Z,84.42
2017-03-13T12:24:26.782Z,83.98
2017-03-13T12:25:37.105Z,84.08
2017-03-13T12:26:47.817Z,84.08
2017-03-13T12:27:58.143Z,84.36
2017-03-13T12:29:08.855Z,83.61
2017-03-13T12:30:19.168Z,84.17
2017-03-13T12:31:29.903Z,84.08
2017-03-13T12:32:40.235Z,83.89
2017-03-13T12:33:50.947Z,83.8
2017-03-13T12:35:01.657Z,83.23
2017-03-13T12:36:12.400Z,83.32
2017-03-13T12:37:23.124Z,83.32
2017-03-13T12:38:33.843Z,83.32
2017-03-13T12:39:44.565Z,83.7
2017-03-13T12:40:55.298Z,83.51
2017-03-13T12:42:05.615Z,83.42
2017-03-13T12:43:16.327Z,83.42
2017-03-13T12:44:27.089Z,83.51
2017-03-13T12:45:37.019Z,84.27
2017-03-13T12:46:47.741Z,83.7
2017-03-13T12:47:58.481Z,84.17
2017-03-13T12:49:09.226Z,83.8
2017-03-13T12:50:19.937Z,84.27
2017-03-13T12:51:30.648Z,84.27
2017-03-13T12:54:22.272Z,83.98
2017-03-13T12:55:32.190Z,83.89
2017-03-13T12:56:42.542Z,83.51
2017-03-13T12:57:52.874Z,83.51
2017-03-13T12:59:03.177Z,83.8
2017-03-13T13:00:13.903Z,83.32
2017-03-13T13:01:24.585Z,83.89
2017-03-13T13:02:34.873Z,83.7
2017-03-13T13:03:45.151Z,83.89
2017-03-13T13:04:55.859Z,83.8
2017-03-13T13:06:06.145Z,84.17
2017-03-13T13:07:16.024Z,84.08
2017-03-13T13:08:26.701Z,83.8
2017-03-13T13:09:37.384Z,84.36
2017-03-13T13:10:48.072Z,84.94
2017-03-13T13:11:58.341Z,84.74
2017-03-13T13:13:09.019Z,84.84
2017-03-13T13:14:19.685Z,84.65
2017-03-13T13:15:29.571Z,84.74
2017-03-13T13:16:40.236Z,84.46
2017-03-13T13:17:50.516Z,84.74
2017-03-13T13:19:01.199Z,85.03
2017-03-13T13:20:11.080Z,84.65
2017-03-13T13:21:21.752Z,85.03
2017-03-13T13:22:32.419Z,84.84
2017-03-13T13:23:42.299Z,84.55
2017-03-13T13:24:52.178Z,84.84
2017-03-13T13:26:02.456Z,85.03
2017-03-13T13:27:13.130Z,84.17
2017-03-13T13:28:23.026Z,83.98
2017-03-13T13:29:33.309Z,84.36
2017-03-13T13:30:43.977Z,84.36
2017-03-13T13:31:54.270Z,83.98
2017-03-13T13:33:04.947Z,84.27
2017-03-13T13:34:15.620Z,84.94
2017-03-13T13:35:25.897Z,84.74
2017-03-13T13:36:36.580Z,84.55
2017-03-13T13:37:47.299Z,84.74
2017-03-13T13:38:57.980Z,85.03
2017-03-13T13:40:08.668Z,85.03
2017-03-13T13:41:19.362Z,84.84
2017-03-13T13:42:30.040Z,85.78
2017-03-13T13:43:39.922Z,85.5
2017-03-13T13:44:50.596Z,85.22
2017-03-13T13:46:00.877Z,85.41
2017-03-13T13:47:11.161Z,85.6
2017-03-13T13:48:21.043Z,85.78
2017-03-13T13:49:31.722Z,85.13
2017-03-13T13:50:42.000Z,84.94
2017-03-13T13:51:52.673Z,85.41
2017-03-13T13:53:03.349Z,84.74
2017-03-13T13:54:13.626Z,84.46
2017-03-13T13:55:24.312Z,84.84
2017-03-13T13:56:34.989Z,84.65
2017-03-13T13:57:45.679Z,83.98
2017-03-13T13:58:56.355Z,84.36
2017-03-13T14:00:07.036Z,84.17
2017-03-13T14:01:16.918Z,84.17
2017-03-13T14:02:27.596Z,84.46
2017-03-13T14:03:38.273Z,84.36
2017-03-13T14:04:48.942Z,83.98
2017-03-13T14:05:59.625Z,84.46
2017-03-13T14:07:10.307Z,84.36
2017-03-13T14:08:20.990Z,84.27
2017-03-13T14:09:30.875Z,84.46
2017-03-13T14:10:41.558Z,84.36
2017-03-13T14:11:51.838Z,84.36
2017-03-13T14:13:02.515Z,84.08
2017-03-13T14:14:13.196Z,84.94
2017-03-13T14:16:07.891Z,84.08
2017-03-13T14:17:18.569Z,84.65
2017-03-13T14:18:28.458Z,85.03
2017-03-13T14:19:39.130Z,84.55
2017-03-13T14:25:05.007Z,85.31
2017-03-13T14:26:15.679Z,85.6
2017-03-13T14:31:15.432Z,85.78
2017-03-13T14:32:26.115Z,85.22
2017-03-13T14:33:36.789Z,85.78
2017-03-13T14:34:47.457Z,85.88
2017-03-13T14:35:58.124Z,85.88
2017-03-13T14:48:32.282Z,85.97
2017-03-13T14:49:42.954Z,86.26
2017-03-13T14:50:53.626Z,86.35
2017-03-13T14:52:04.293Z,86.55
2017-03-13T14:53:14.979Z,85.78
2017-03-13T14:54:25.726Z,86.07
2017-03-13T14:56:07.694Z,85.97
2017-03-13T14:57:18.426Z,85.88
2017-03-13T14:58:29.138Z,86.26
2017-03-13T14:59:39.817Z,86.64
2017-03-13T15:10:40.681Z,86.55
2017-03-13T15:11:51.357Z,86.35
2017-03-13T15:43:38.495Z,70.7
2017-03-13T15:44:48.383Z,70.54
2017-03-13T15:45:58.757Z,70.64
2017-03-13T15:47:09.456Z,70.89
2017-03-13T15:48:20.212Z,70.61
2017-03-13T15:49:30.505Z,70.61
2017-03-13T15:54:54.676Z,72.19
2017-03-13T15:56:05.005Z,72.38
2017-03-13T15:57:15.299Z,72.38
2017-03-13T16:01:24.042Z,74.08
2017-03-13T16:05:14.510Z,75.19
2017-03-13T16:06:24.396Z,75.67
2017-03-13T16:07:34.279Z,75.19
2017-03-13T16:08:44.963Z,75
2017-03-13T16:09:55.640Z,75
2017-03-13T16:11:37.605Z,75.09
2017-03-13T16:12:48.292Z,75.67
2017-03-13T16:13:58.579Z,75.85
2017-03-13T16:15:09.258Z,75.57
2017-03-13T16:18:26.974Z,77.14
2017-03-13T16:19:37.252Z,77.24
2017-03-13T16:20:47.920Z,77.81
2017-03-13T16:37:18.512Z,83.04
2017-03-13T16:38:28.809Z,84.08
2017-03-13T16:40:11.370Z,84.17
2017-03-13T16:41:22.051Z,84.36
2017-03-13T16:42:59.409Z,84.74
2017-03-13T16:44:10.080Z,85.69